sensor_id;sensor_type;location;lat;lon;timestamp;temperature;humidity
68842;SHT35;55849;48.482;2.332;2023-06-19T04:38:30;20.11;77.67
68842;SHT35;55849;48.482;2.332;2023-06-19T04:41:32;20.11;78.03
68842;SHT35;55849;48.482;2.332;2023-06-19T04:44:34;20.12;78.74
68842;SHT35;55849;48.482;2.332;2023-06-19T04:47:36;20.11;77.70
68842;SHT35;55849;48.482;2.332;2023-06-19T04:50:38;20.13;78.67
68842;SHT35;55849;48.482;2.332;2023-06-19T04:53:41;20.15;78.71
68842;SHT35;55849;48.482;2.332;2023-06-19T04:56:43;20.16;78.66
68842;SHT35;55849;48.482;2.332;2023-06-19T04:59:44;20.18;79.39
68842;SHT35;55849;48.482;2.332;2023-06-19T05:02:46;20.19;79.59
68842;SHT35;55849;48.482;2.332;2023-06-19T05:05:48;20.23;78.99
68842;SHT35;55849;48.482;2.332;2023-06-19T05:08:51;20.26;79.42
68842;SHT35;55849;48.482;2.332;2023-06-19T05:11:52;20.26;79.09
68842;SHT35;55849;48.482;2.332;2023-06-19T05:14:54;20.29;79.66
68842;SHT35;55849;48.482;2.332;2023-06-19T05:17:55;20.30;79.54
68842;SHT35;55849;48.482;2.332;2023-06-19T05:20:57;20.29;79.61
68842;SHT35;55849;48.482;2.332;2023-06-19T05:24:00;20.30;79.69
68842;SHT35;55849;48.482;2.332;2023-06-19T05:27:01;20.34;80.02
68842;SHT35;55849;48.482;2.332;2023-06-19T05:30:05;20.37;79.92
68842;SHT35;55849;48.482;2.332;2023-06-19T05:33:07;20.37;80.26
68842;SHT35;55849;48.482;2.332;2023-06-19T05:36:10;20.40;80.23
68842;SHT35;55849;48.482;2.332;2023-06-19T05:39:13;20.41;79.89
68842;SHT35;55849;48.482;2.332;2023-06-19T05:42:15;20.46;79.94
68842;SHT35;55849;48.482;2.332;2023-06-19T05:45:17;20.49;80.00
68842;SHT35;55849;48.482;2.332;2023-06-19T05:48:18;20.47;80.21
68842;SHT35;55849;48.482;2.332;2023-06-19T05:51:20;20.50;80.15
68842;SHT35;55849;48.482;2.332;2023-06-19T05:54:23;20.50;80.24
68842;SHT35;55849;48.482;2.332;2023-06-19T05:57:25;20.56;80.46
68842;SHT35;55849;48.482;2.332;2023-06-19T06:00:26;20.57;80.45
68842;SHT35;55849;48.482;2.332;2023-06-19T06:03:30;20.56;80.26
68842;SHT35;55849;48.482;2.332;2023-06-19T06:06:31;20.54;80.47
68842;SHT35;55849;48.482;2.332;2023-06-19T06:09:34;20.57;80.29
68842;SHT35;55849;48.482;2.332;2023-06-19T06:12:36;20.56;80.10
68842;SHT35;55849;48.482;2.332;2023-06-19T06:15:38;20.60;79.93
68842;SHT35;55849;48.482;2.332;2023-06-19T06:18:40;20.61;80.75
68842;SHT35;55849;48.482;2.332;2023-06-19T06:21:41;20.61;81.08
68842;SHT35;55849;48.482;2.332;2023-06-19T06:24:44;20.64;80.83
68842;SHT35;55849;48.482;2.332;2023-06-19T06:27:46;20.68;80.91
68842;SHT35;55849;48.482;2.332;2023-06-19T06:30:48;20.70;80.84
68842;SHT35;55849;48.482;2.332;2023-06-19T06:33:50;20.73;81.13
68842;SHT35;55849;48.482;2.332;2023-06-19T06:36:51;20.75;81.18
68842;SHT35;55849;48.482;2.332;2023-06-19T06:39:54;20.81;81.28
68842;SHT35;55849;48.482;2.332;2023-06-19T06:42:56;20.84;81.30
68842;SHT35;55849;48.482;2.332;2023-06-19T06:45:57;20.88;81.55
68842;SHT35;55849;48.482;2.332;2023-06-19T06:48:59;20.90;81.36
68842;SHT35;55849;48.482;2.332;2023-06-19T06:52:01;20.92;81.33
68842;SHT35;55849;48.482;2.332;2023-06-19T06:55:04;21.00;81.88
68842;SHT35;55849;48.482;2.332;2023-06-19T06:58:06;21.02;81.60
68842;SHT35;55849;48.482;2.332;2023-06-19T07:01:08;21.06;81.72
68842;SHT35;55849;48.482;2.332;2023-06-19T07:04:09;21.13;81.51
68842;SHT35;55849;48.482;2.332;2023-06-19T07:07:11;21.15;81.82
68842;SHT35;55849;48.482;2.332;2023-06-19T07:10:14;21.22;81.99
68842;SHT35;55849;48.482;2.332;2023-06-19T07:13:16;21.26;81.92
68842;SHT35;55849;48.482;2.332;2023-06-19T07:16:17;21.29;81.82
68842;SHT35;55849;48.482;2.332;2023-06-19T07:19:19;21.32;82.06
68842;SHT35;55849;48.482;2.332;2023-06-19T07:22:20;21.36;81.90
68842;SHT35;55849;48.482;2.332;2023-06-19T07:25:23;21.39;81.63
68842;SHT35;55849;48.482;2.332;2023-06-19T07:28:25;21.41;81.69
68842;SHT35;55849;48.482;2.332;2023-06-19T07:31:27;21.43;81.94
68842;SHT35;55849;48.482;2.332;2023-06-19T07:34:28;21.47;81.73
68842;SHT35;55849;48.482;2.332;2023-06-19T07:37:30;21.49;81.77
68842;SHT35;55849;48.482;2.332;2023-06-19T07:40:33;21.51;81.61
68842;SHT35;55849;48.482;2.332;2023-06-19T07:43:34;21.54;81.67
68842;SHT35;55849;48.482;2.332;2023-06-19T07:46:36;21.55;80.83
68842;SHT35;55849;48.482;2.332;2023-06-19T07:49:38;21.57;81.31
68842;SHT35;55849;48.482;2.332;2023-06-19T07:52:39;21.57;81.14
68842;SHT35;55849;48.482;2.332;2023-06-19T07:55:43;21.57;80.69
68842;SHT35;55849;48.482;2.332;2023-06-19T07:58:44;21.61;81.31
68842;SHT35;55849;48.482;2.332;2023-06-19T08:01:47;21.61;81.12
68842;SHT35;55849;48.482;2.332;2023-06-19T08:04:48;21.67;81.38
68842;SHT35;55849;48.482;2.332;2023-06-19T08:07:50;21.68;81.76
68842;SHT35;55849;48.482;2.332;2023-06-19T08:10:53;21.67;81.65
68842;SHT35;55849;48.482;2.332;2023-06-19T08:13:55;21.73;81.67
68842;SHT35;55849;48.482;2.332;2023-06-19T08:16:57;21.73;81.84
68842;SHT35;55849;48.482;2.332;2023-06-19T08:19:58;21.77;81.70
68842;SHT35;55849;48.482;2.332;2023-06-19T08:23:00;21.78;82.00
68842;SHT35;55849;48.482;2.332;2023-06-19T08:26:03;21.81;82.02
68842;SHT35;55849;48.482;2.332;2023-06-19T08:29:05;21.82;81.90
68842;SHT35;55849;48.482;2.332;2023-06-19T08:32:07;21.85;81.82
68842;SHT35;55849;48.482;2.332;2023-06-19T08:35:09;21.88;81.80
68842;SHT35;55849;48.482;2.332;2023-06-19T08:38:11;21.93;81.34
68842;SHT35;55849;48.482;2.332;2023-06-19T08:41:14;21.96;82.05
68842;SHT35;55849;48.482;2.332;2023-06-19T08:44:15;22.01;82.13
68842;SHT35;55849;48.482;2.332;2023-06-19T08:47:17;22.05;81.71
68842;SHT35;55849;48.482;2.332;2023-06-19T08:50:19;22.08;82.05
68842;SHT35;55849;48.482;2.332;2023-06-19T08:53:20;22.10;81.73
68842;SHT35;55849;48.482;2.332;2023-06-19T08:56:24;22.14;82.17
68842;SHT35;55849;48.482;2.332;2023-06-19T08:59:26;22.20;82.35
68842;SHT35;55849;48.482;2.332;2023-06-19T09:02:37;22.21;81.69
68842;SHT35;55849;48.482;2.332;2023-06-19T09:05:40;22.26;81.92
68842;SHT35;55849;48.482;2.332;2023-06-19T09:08:44;22.30;81.70
68842;SHT35;55849;48.482;2.332;2023-06-19T09:11:57;22.36;81.25
68842;SHT35;55849;48.482;2.332;2023-06-19T09:14:59;22.39;80.88
68842;SHT35;55849;48.482;2.332;2023-06-19T09:18:05;22.43;81.50
68842;SHT35;55849;48.482;2.332;2023-06-19T09:21:14;22.50;80.99
68842;SHT35;55849;48.482;2.332;2023-06-19T09:24:16;22.57;80.44
68842;SHT35;55849;48.482;2.332;2023-06-19T09:27:19;22.60;80.39
68842;SHT35;55849;48.482;2.332;2023-06-19T09:30:21;22.67;80.51
68842;SHT35;55849;48.482;2.332;2023-06-19T09:33:25;22.69;80.56
68842;SHT35;55849;48.482;2.332;2023-06-19T09:36:27;22.73;80.20
68842;SHT35;55849;48.482;2.332;2023-06-19T09:39:30;22.81;80.86
68842;SHT35;55849;48.482;2.332;2023-06-19T09:42:34;22.88;81.22
68842;SHT35;55849;48.482;2.332;2023-06-19T09:45:36;22.92;81.41
68842;SHT35;55849;48.482;2.332;2023-06-19T09:48:42;22.98;80.63
68842;SHT35;55849;48.482;2.332;2023-06-19T09:51:43;23.00;80.07
68842;SHT35;55849;48.482;2.332;2023-06-19T09:54:46;23.05;79.50
68842;SHT35;55849;48.482;2.332;2023-06-19T09:57:49;23.06;79.47
68842;SHT35;55849;48.482;2.332;2023-06-19T10:00:51;23.10;78.87
68842;SHT35;55849;48.482;2.332;2023-06-19T10:04:03;23.12;79.89
68842;SHT35;55849;48.482;2.332;2023-06-19T10:07:15;23.14;79.95
68842;SHT35;55849;48.482;2.332;2023-06-19T10:10:23;23.21;80.16
68842;SHT35;55849;48.482;2.332;2023-06-19T10:13:33;23.26;79.25
68842;SHT35;55849;48.482;2.332;2023-06-19T10:16:35;23.33;80.50
68842;SHT35;55849;48.482;2.332;2023-06-19T10:19:37;23.38;80.16
68842;SHT35;55849;48.482;2.332;2023-06-19T10:22:38;23.44;79.27
68842;SHT35;55849;48.482;2.332;2023-06-19T10:25:41;23.51;78.79
68842;SHT35;55849;48.482;2.332;2023-06-19T10:28:47;23.54;79.31
68842;SHT35;55849;48.482;2.332;2023-06-19T10:31:49;23.59;77.48
68842;SHT35;55849;48.482;2.332;2023-06-19T10:34:51;23.59;79.15
68842;SHT35;55849;48.482;2.332;2023-06-19T10:37:53;23.65;78.68
68842;SHT35;55849;48.482;2.332;2023-06-19T10:40:54;23.72;77.27
68842;SHT35;55849;48.482;2.332;2023-06-19T10:43:59;23.76;76.91
68842;SHT35;55849;48.482;2.332;2023-06-19T10:47:02;23.79;77.27
68842;SHT35;55849;48.482;2.332;2023-06-19T10:50:04;23.82;76.04
68842;SHT35;55849;48.482;2.332;2023-06-19T10:53:06;23.88;76.13
68842;SHT35;55849;48.482;2.332;2023-06-19T10:56:08;23.89;76.73
68842;SHT35;55849;48.482;2.332;2023-06-19T10:59:11;23.93;75.91
68842;SHT35;55849;48.482;2.332;2023-06-19T11:02:13;23.96;77.07
68842;SHT35;55849;48.482;2.332;2023-06-19T11:05:23;23.98;77.54
68842;SHT35;55849;48.482;2.332;2023-06-19T11:08:24;24.00;77.60
68842;SHT35;55849;48.482;2.332;2023-06-19T11:11:35;24.00;78.09
68842;SHT35;55849;48.482;2.332;2023-06-19T11:14:38;24.06;78.36
68842;SHT35;55849;48.482;2.332;2023-06-19T11:17:42;24.03;77.89
68842;SHT35;55849;48.482;2.332;2023-06-19T11:20:44;24.05;78.49
68842;SHT35;55849;48.482;2.332;2023-06-19T11:23:47;24.03;78.24
68842;SHT35;55849;48.482;2.332;2023-06-19T11:26:50;24.03;78.61
68842;SHT35;55849;48.482;2.332;2023-06-19T11:29:56;24.03;78.14
68842;SHT35;55849;48.482;2.332;2023-06-19T11:32:59;24.05;78.65
68842;SHT35;55849;48.482;2.332;2023-06-19T11:36:02;24.05;78.90
68842;SHT35;55849;48.482;2.332;2023-06-19T11:39:09;24.09;78.70
68842;SHT35;55849;48.482;2.332;2023-06-19T11:42:12;24.14;79.13
68842;SHT35;55849;48.482;2.332;2023-06-19T11:45:15;24.14;78.81
68842;SHT35;55849;48.482;2.332;2023-06-19T11:48:22;24.17;78.89
68842;SHT35;55849;48.482;2.332;2023-06-19T11:51:24;24.20;77.73
68842;SHT35;55849;48.482;2.332;2023-06-19T11:54:26;24.18;78.50
68842;SHT35;55849;48.482;2.332;2023-06-19T11:57:27;24.21;78.66
68842;SHT35;55849;48.482;2.332;2023-06-19T12:00:30;24.20;78.82
68842;SHT35;55849;48.482;2.332;2023-06-19T12:03:32;24.24;78.39
68842;SHT35;55849;48.482;2.332;2023-06-19T12:06:34;24.24;77.75
68842;SHT35;55849;48.482;2.332;2023-06-19T12:09:37;24.27;78.14
68842;SHT35;55849;48.482;2.332;2023-06-19T12:12:39;24.30;78.46
68842;SHT35;55849;48.482;2.332;2023-06-19T12:15:42;24.31;78.42
68842;SHT35;55849;48.482;2.332;2023-06-19T12:18:44;24.34;78.76
68842;SHT35;55849;48.482;2.332;2023-06-19T12:21:45;24.34;78.67
68842;SHT35;55849;48.482;2.332;2023-06-19T12:24:47;24.35;78.57
68842;SHT35;55849;48.482;2.332;2023-06-19T12:27:49;24.34;78.73
68842;SHT35;55849;48.482;2.332;2023-06-19T12:30:53;24.37;78.81
68842;SHT35;55849;48.482;2.332;2023-06-19T12:33:56;24.35;78.60
68842;SHT35;55849;48.482;2.332;2023-06-19T12:36:58;24.35;78.54
68842;SHT35;55849;48.482;2.332;2023-06-19T12:39:59;24.35;78.87
68842;SHT35;55849;48.482;2.332;2023-06-19T12:43:01;24.33;79.19
68842;SHT35;55849;48.482;2.332;2023-06-19T12:46:04;24.31;79.35
68842;SHT35;55849;48.482;2.332;2023-06-19T12:49:06;24.27;79.74
68842;SHT35;55849;48.482;2.332;2023-06-19T12:52:08;24.27;79.60
68842;SHT35;55849;48.482;2.332;2023-06-19T12:55:09;24.25;79.90
68842;SHT35;55849;48.482;2.332;2023-06-19T12:58:11;24.21;79.93
68842;SHT35;55849;48.482;2.332;2023-06-19T13:01:14;24.20;80.50
68842;SHT35;55849;48.482;2.332;2023-06-19T13:04:16;24.20;80.15
68842;SHT35;55849;48.482;2.332;2023-06-19T13:07:17;24.18;80.04
68842;SHT35;55849;48.482;2.332;2023-06-19T13:10:19;24.18;80.49
68842;SHT35;55849;48.482;2.332;2023-06-19T13:13:21;24.18;80.53
68842;SHT35;55849;48.482;2.332;2023-06-19T13:16:24;24.21;81.32
68842;SHT35;55849;48.482;2.332;2023-06-19T13:19:26;24.23;81.95
68842;SHT35;55849;48.482;2.332;2023-06-19T13:22:28;24.31;82.14
68842;SHT35;55849;48.482;2.332;2023-06-19T13:25:30;24.40;81.93
68842;SHT35;55849;48.482;2.332;2023-06-19T13:28:33;24.45;81.88
68842;SHT35;55849;48.482;2.332;2023-06-19T13:31:36;24.57;81.31
68842;SHT35;55849;48.482;2.332;2023-06-19T13:34:37;24.65;81.53
68842;SHT35;55849;48.482;2.332;2023-06-19T13:37:39;24.75;81.23
68842;SHT35;55849;48.482;2.332;2023-06-19T13:40:41;24.80;81.86
68842;SHT35;55849;48.482;2.332;2023-06-19T13:43:42;24.89;80.30
68842;SHT35;55849;48.482;2.332;2023-06-19T13:46:47;24.93;80.92
68842;SHT35;55849;48.482;2.332;2023-06-19T13:49:49;24.96;80.07
68842;SHT35;55849;48.482;2.332;2023-06-19T13:52:51;24.97;80.14
68842;SHT35;55849;48.482;2.332;2023-06-19T13:55:52;25.00;80.26
68842;SHT35;55849;48.482;2.332;2023-06-19T13:58:54;25.00;80.22
68842;SHT35;55849;48.482;2.332;2023-06-19T14:01:57;25.00;79.82
68842;SHT35;55849;48.482;2.332;2023-06-19T14:04:58;25.02;79.69
68842;SHT35;55849;48.482;2.332;2023-06-19T14:08:00;24.99;79.81
68842;SHT35;55849;48.482;2.332;2023-06-19T14:11:03;25.02;79.96
68842;SHT35;55849;48.482;2.332;2023-06-19T14:14:05;25.04;79.93
68842;SHT35;55849;48.482;2.332;2023-06-19T14:17:08;25.04;79.93
68842;SHT35;55849;48.482;2.332;2023-06-19T14:20:11;25.07;79.71
68842;SHT35;55849;48.482;2.332;2023-06-19T14:23:13;25.11;79.89
68842;SHT35;55849;48.482;2.332;2023-06-19T14:26:14;25.14;80.03
68842;SHT35;55849;48.482;2.332;2023-06-19T14:29:16;25.17;79.95
68842;SHT35;55849;48.482;2.332;2023-06-19T14:32:20;25.20;79.32
68842;SHT35;55849;48.482;2.332;2023-06-19T14:35:22;25.21;79.31
68842;SHT35;55849;48.482;2.332;2023-06-19T14:38:24;25.24;79.13
68842;SHT35;55849;48.482;2.332;2023-06-19T14:41:28;25.21;79.44
68842;SHT35;55849;48.482;2.332;2023-06-19T14:44:29;25.23;79.52
68842;SHT35;55849;48.482;2.332;2023-06-19T14:47:32;25.20;79.50
68842;SHT35;55849;48.482;2.332;2023-06-19T14:50:34;25.20;79.42
68842;SHT35;55849;48.482;2.332;2023-06-19T14:53:36;25.21;79.42
68842;SHT35;55849;48.482;2.332;2023-06-19T14:56:38;25.20;78.88
68842;SHT35;55849;48.482;2.332;2023-06-19T14:59:39;25.17;78.90
68842;SHT35;55849;48.482;2.332;2023-06-19T15:02:42;25.13;79.24
68842;SHT35;55849;48.482;2.332;2023-06-19T15:05:44;25.10;79.38
68842;SHT35;55849;48.482;2.332;2023-06-19T15:08:46;25.10;79.00
68842;SHT35;55849;48.482;2.332;2023-06-19T15:11:47;25.06;79.31
68842;SHT35;55849;48.482;2.332;2023-06-19T15:14:49;25.07;79.02
68842;SHT35;55849;48.482;2.332;2023-06-19T15:17:52;25.02;79.28
68842;SHT35;55849;48.482;2.332;2023-06-19T15:20:53;25.02;79.52
68842;SHT35;55849;48.482;2.332;2023-06-19T15:23:55;24.99;79.49
68842;SHT35;55849;48.482;2.332;2023-06-19T15:26:57;24.97;79.56
68842;SHT35;55849;48.482;2.332;2023-06-19T15:30:00;24.97;79.91
68842;SHT35;55849;48.482;2.332;2023-06-19T15:33:03;24.97;79.67
68842;SHT35;55849;48.482;2.332;2023-06-19T15:36:05;24.96;79.95
68842;SHT35;55849;48.482;2.332;2023-06-19T15:39:08;24.96;79.98
68842;SHT35;55849;48.482;2.332;2023-06-19T15:42:09;24.96;80.43
68842;SHT35;55849;48.482;2.332;2023-06-19T15:45:11;24.96;80.06
68842;SHT35;55849;48.482;2.332;2023-06-19T15:48:14;24.97;79.87
68842;SHT35;55849;48.482;2.332;2023-06-19T15:51:17;24.97;79.99
68842;SHT35;55849;48.482;2.332;2023-06-19T15:54:19;24.99;80.00
68842;SHT35;55849;48.482;2.332;2023-06-19T15:57:21;24.96;80.21
68842;SHT35;55849;48.482;2.332;2023-06-19T16:00:23;24.99;80.33
68842;SHT35;55849;48.482;2.332;2023-06-19T16:03:26;25.00;80.50
68842;SHT35;55849;48.482;2.332;2023-06-19T16:06:28;25.00;80.49
68842;SHT35;55849;48.482;2.332;2023-06-19T16:09:30;24.99;79.74
68842;SHT35;55849;48.482;2.332;2023-06-19T16:12:32;24.99;79.88
68842;SHT35;55849;48.482;2.332;2023-06-19T16:15:34;24.99;79.23
68842;SHT35;55849;48.482;2.332;2023-06-19T16:18:37;24.94;80.14
68842;SHT35;55849;48.482;2.332;2023-06-19T16:21:38;24.97;79.97
68842;SHT35;55849;48.482;2.332;2023-06-19T16:24:40;24.94;80.23
68842;SHT35;55849;48.482;2.332;2023-06-19T16:27:41;24.92;80.03
68842;SHT35;55849;48.482;2.332;2023-06-19T16:30:43;24.92;79.99
68842;SHT35;55849;48.482;2.332;2023-06-19T16:33:46;24.93;80.04
68842;SHT35;55849;48.482;2.332;2023-06-19T16:36:48;24.92;79.92
68842;SHT35;55849;48.482;2.332;2023-06-19T16:39:50;24.93;80.07
68842;SHT35;55849;48.482;2.332;2023-06-19T16:42:52;24.92;80.41
68842;SHT35;55849;48.482;2.332;2023-06-19T16:45:53;24.93;80.50
68842;SHT35;55849;48.482;2.332;2023-06-19T16:48:56;24.96;80.50
68842;SHT35;55849;48.482;2.332;2023-06-19T16:51:59;24.96;81.06
68842;SHT35;55849;48.482;2.332;2023-06-19T16:55:00;25.00;80.45
68842;SHT35;55849;48.482;2.332;2023-06-19T16:58:02;25.06;80.71
68842;SHT35;55849;48.482;2.332;2023-06-19T17:01:03;25.09;80.66
68842;SHT35;55849;48.482;2.332;2023-06-19T17:04:07;25.14;79.69
68842;SHT35;55849;48.482;2.332;2023-06-19T17:07:08;25.18;79.96
68842;SHT35;55849;48.482;2.332;2023-06-19T17:10:10;25.23;80.68
68842;SHT35;55849;48.482;2.332;2023-06-19T17:13:15;25.23;80.23
68842;SHT35;55849;48.482;2.332;2023-06-19T17:16:16;25.26;80.21
68842;SHT35;55849;48.482;2.332;2023-06-19T17:19:19;25.24;79.78
68842;SHT35;55849;48.482;2.332;2023-06-19T17:22:21;25.27;79.81
68842;SHT35;55849;48.482;2.332;2023-06-19T17:25:23;25.26;79.66
68842;SHT35;55849;48.482;2.332;2023-06-19T17:28:24;25.26;80.01
68842;SHT35;55849;48.482;2.332;2023-06-19T17:31:26;25.24;79.71
68842;SHT35;55849;48.482;2.332;2023-06-19T17:34:29;25.24;80.06
68842;SHT35;55849;48.482;2.332;2023-06-19T17:37:32;25.20;79.90
68842;SHT35;55849;48.482;2.332;2023-06-19T17:40:33;25.21;79.90
68842;SHT35;55849;48.482;2.332;2023-06-19T17:43:35;25.20;79.35
68842;SHT35;55849;48.482;2.332;2023-06-19T17:46:37;25.20;79.33
68842;SHT35;55849;48.482;2.332;2023-06-19T17:49:40;25.17;79.37
68842;SHT35;55849;48.482;2.332;2023-06-19T17:52:42;25.18;79.12
68842;SHT35;55849;48.482;2.332;2023-06-19T17:55:43;25.18;79.32
68842;SHT35;55849;48.482;2.332;2023-06-19T17:58:45;25.17;80.31
68842;SHT35;55849;48.482;2.332;2023-06-19T18:01:46;25.14;79.60
68842;SHT35;55849;48.482;2.332;2023-06-19T18:04:51;25.11;80.41
68842;SHT35;55849;48.482;2.332;2023-06-19T18:07:52;25.11;80.45
68842;SHT35;55849;48.482;2.332;2023-06-19T18:10:54;25.10;79.77
68842;SHT35;55849;48.482;2.332;2023-06-19T18:13:58;25.07;80.38
68842;SHT35;55849;48.482;2.332;2023-06-19T18:16:59;25.06;80.22
68842;SHT35;55849;48.482;2.332;2023-06-19T18:20:06;25.03;79.63
68842;SHT35;55849;48.482;2.332;2023-06-19T18:23:08;25.00;79.04
68842;SHT35;55849;48.482;2.332;2023-06-19T18:26:09;24.96;79.03
68842;SHT35;55849;48.482;2.332;2023-06-19T18:29:11;24.96;79.14
68842;SHT35;55849;48.482;2.332;2023-06-19T18:32:12;24.93;79.38
68842;SHT35;55849;48.482;2.332;2023-06-19T18:35:17;24.89;80.63
68842;SHT35;55849;48.482;2.332;2023-06-19T18:38:19;24.87;80.28
68842;SHT35;55849;48.482;2.332;2023-06-19T18:41:20;24.83;80.63
68842;SHT35;55849;48.482;2.332;2023-06-19T18:44:22;24.80;80.83
68842;SHT35;55849;48.482;2.332;2023-06-19T18:47:24;24.79;79.86
68842;SHT35;55849;48.482;2.332;2023-06-19T18:50:27;24.75;79.66
68842;SHT35;55849;48.482;2.332;2023-06-19T18:53:29;24.72;80.36
68842;SHT35;55849;48.482;2.332;2023-06-19T18:56:30;24.72;80.24
68842;SHT35;55849;48.482;2.332;2023-06-19T18:59:32;24.68;80.05
68842;SHT35;55849;48.482;2.332;2023-06-19T19:02:35;24.68;80.92
68842;SHT35;55849;48.482;2.332;2023-06-19T19:05:38;24.64;80.94
68842;SHT35;55849;48.482;2.332;2023-06-19T19:08:40;24.59;80.84
68842;SHT35;55849;48.482;2.332;2023-06-19T19:11:41;24.59;81.31
68842;SHT35;55849;48.482;2.332;2023-06-19T19:14:43;24.57;80.64
68842;SHT35;55849;48.482;2.332;2023-06-19T19:17:45;24.57;81.17
68842;SHT35;55849;48.482;2.332;2023-06-19T19:20:48;24.51;81.01
68842;SHT35;55849;48.482;2.332;2023-06-19T19:23:49;24.49;80.92
68842;SHT35;55849;48.482;2.332;2023-06-19T19:26:51;24.48;81.53
68842;SHT35;55849;48.482;2.332;2023-06-19T19:29:52;24.47;81.31
68842;SHT35;55849;48.482;2.332;2023-06-19T19:32:54;24.42;81.54
68842;SHT35;55849;48.482;2.332;2023-06-19T19:35:57;24.41;81.47
68842;SHT35;55849;48.482;2.332;2023-06-19T19:39:01;24.35;81.44
68842;SHT35;55849;48.482;2.332;2023-06-19T19:42:03;24.34;81.55
68842;SHT35;55849;48.482;2.332;2023-06-19T19:45:06;24.31;81.49
68842;SHT35;55849;48.482;2.332;2023-06-19T19:48:08;24.30;81.49
68842;SHT35;55849;48.482;2.332;2023-06-19T19:51:10;24.28;81.75
68842;SHT35;55849;48.482;2.332;2023-06-19T19:54:12;24.23;81.59
68842;SHT35;55849;48.482;2.332;2023-06-19T19:57:14;24.20;81.59
68842;SHT35;55849;48.482;2.332;2023-06-19T20:00:16;24.17;81.75
68842;SHT35;55849;48.482;2.332;2023-06-19T20:03:17;24.17;81.79
68842;SHT35;55849;48.482;2.332;2023-06-19T20:06:20;24.14;81.75
68842;SHT35;55849;48.482;2.332;2023-06-19T20:09:22;24.12;81.83
68842;SHT35;55849;48.482;2.332;2023-06-19T20:12:24;24.06;81.86
68842;SHT35;55849;48.482;2.332;2023-06-19T20:15:26;24.05;81.71
68842;SHT35;55849;48.482;2.332;2023-06-19T20:18:27;24.06;81.82
68842;SHT35;55849;48.482;2.332;2023-06-19T20:21:30;24.03;81.89
68842;SHT35;55849;48.482;2.332;2023-06-19T20:24:32;24.00;81.80
68842;SHT35;55849;48.482;2.332;2023-06-19T20:27:34;23.99;81.99
68842;SHT35;55849;48.482;2.332;2023-06-19T20:30:35;23.96;81.87
68842;SHT35;55849;48.482;2.332;2023-06-19T20:33:38;23.95;82.03
68842;SHT35;55849;48.482;2.332;2023-06-19T20:36:41;23.93;82.15
68842;SHT35;55849;48.482;2.332;2023-06-19T20:39:43;23.90;81.78
68842;SHT35;55849;48.482;2.332;2023-06-19T20:42:44;23.88;82.11
68842;SHT35;55849;48.482;2.332;2023-06-19T20:45:46;23.85;82.08
68842;SHT35;55849;48.482;2.332;2023-06-19T20:48:48;23.83;82.12
68842;SHT35;55849;48.482;2.332;2023-06-19T20:51:51;23.82;82.11
68842;SHT35;55849;48.482;2.332;2023-06-19T20:54:53;23.81;82.15
68842;SHT35;55849;48.482;2.332;2023-06-19T20:57:54;23.81;81.91
68842;SHT35;55849;48.482;2.332;2023-06-19T21:00:56;23.76;81.60
68842;SHT35;55849;48.482;2.332;2023-06-19T21:03:58;23.75;82.35
68842;SHT35;55849;48.482;2.332;2023-06-19T21:07:03;23.72;82.09
68842;SHT35;55849;48.482;2.332;2023-06-19T21:10:05;23.72;82.11
68842;SHT35;55849;48.482;2.332;2023-06-19T21:13:07;23.68;81.88
68842;SHT35;55849;48.482;2.332;2023-06-19T21:16:09;23.66;80.72
68842;SHT35;55849;48.482;2.332;2023-06-19T21:19:11;23.65;80.45
68842;SHT35;55849;48.482;2.332;2023-06-19T21:22:14;23.61;79.83
68842;SHT35;55849;48.482;2.332;2023-06-19T21:25:15;23.55;81.73
68842;SHT35;55849;48.482;2.332;2023-06-19T21:28:17;23.55;80.69
68842;SHT35;55849;48.482;2.332;2023-06-19T21:31:19;23.53;81.69
68842;SHT35;55849;48.482;2.332;2023-06-19T21:34:21;23.48;81.61
68842;SHT35;55849;48.482;2.332;2023-06-19T21:37:25;23.43;81.80
68842;SHT35;55849;48.482;2.332;2023-06-19T21:40:26;23.43;81.12
68842;SHT35;55849;48.482;2.332;2023-06-19T21:43:28;23.38;81.66
68842;SHT35;55849;48.482;2.332;2023-06-19T21:46:30;23.36;81.76
68842;SHT35;55849;48.482;2.332;2023-06-19T21:49:31;23.31;81.85
68842;SHT35;55849;48.482;2.332;2023-06-19T21:52:34;23.31;82.04
68842;SHT35;55849;48.482;2.332;2023-06-19T21:55:38;23.28;81.97
68842;SHT35;55849;48.482;2.332;2023-06-19T21:58:40;23.26;81.52
68842;SHT35;55849;48.482;2.332;2023-06-19T22:01:41;23.23;81.82
68842;SHT35;55849;48.482;2.332;2023-06-19T22:04:43;23.20;81.68
68842;SHT35;55849;48.482;2.332;2023-06-19T22:07:46;23.17;81.87
68842;SHT35;55849;48.482;2.332;2023-06-19T22:10:47;23.14;81.88
68842;SHT35;55849;48.482;2.332;2023-06-19T22:13:49;23.13;81.65
68842;SHT35;55849;48.482;2.332;2023-06-19T22:16:50;23.07;81.83
68842;SHT35;55849;48.482;2.332;2023-06-19T22:19:52;23.03;82.31
68842;SHT35;55849;48.482;2.332;2023-06-19T22:22:55;23.02;82.26
68842;SHT35;55849;48.482;2.332;2023-06-19T22:25:57;23.00;82.19
68842;SHT35;55849;48.482;2.332;2023-06-19T22:28:59;22.99;81.99
